sensor_id;sensor_type;location;lat;lon;timestamp;temperature;humidity
1063;DHT22;520;50.932;6.962;2022-09-27T00:01:01;12.50;99.90
1063;DHT22;520;50.932;6.962;2022-09-27T00:03:28;12.50;99.90
1063;DHT22;520;50.932;6.962;2022-09-27T00:08:41;12.50;99.90
1063;DHT22;520;50.932;6.962;2022-09-27T00:11:19;12.50;99.90
1063;DHT22;520;50.932;6.962;2022-09-27T00:13:48;12.50;99.90
1063;DHT22;520;50.932;6.962;2022-09-27T00:16:15;12.50;99.90
1063;DHT22;520;50.932;6.962;2022-09-27T00:18:41;12.50;99.90
1063;DHT22;520;50.932;6.962;2022-09-27T00:21:11;12.40;99.90
1063;DHT22;520;50.932;6.962;2022-09-27T00:23:39;12.40;99.90
1063;DHT22;520;50.932;6.962;2022-09-27T00:26:07;12.40;99.90
1063;DHT22;520;50.932;6.962;2022-09-27T00:28:36;12.40;99.90
1063;DHT22;520;50.932;6.962;2022-09-27T00:31:03;12.30;99.90
1063;DHT22;520;50.932;6.962;2022-09-27T00:33:29;12.30;99.90
1063;DHT22;520;50.932;6.962;2022-09-27T00:36:03;12.30;99.90
1063;DHT22;520;50.932;6.962;2022-09-27T00:38:30;12.30;99.90
1063;DHT22;520;50.932;6.962;2022-09-27T00:40:57;12.20;99.90
1063;DHT22;520;50.932;6.962;2022-09-27T00:43:23;12.30;99.90
1063;DHT22;520;50.932;6.962;2022-09-27T00:45:59;12.30;99.90
1063;DHT22;520;50.932;6.962;2022-09-27T00:48:30;12.30;99.90
1063;DHT22;520;50.932;6.962;2022-09-27T00:51:00;12.30;99.90
1063;DHT22;520;50.932;6.962;2022-09-27T00:53:42;12.30;99.90
1063;DHT22;520;50.932;6.962;2022-09-27T00:56:16;12.30;99.90
1063;DHT22;520;50.932;6.962;2022-09-27T00:58:49;12.30;99.90
1063;DHT22;520;50.932;6.962;2022-09-27T01:01:17;12.40;99.90
1063;DHT22;520;50.932;6.962;2022-09-27T01:04:08;12.40;99.90
1063;DHT22;520;50.932;6.962;2022-09-27T01:06:36;12.40;99.90
1063;DHT22;520;50.932;6.962;2022-09-27T01:09:05;12.40;99.90
1063;DHT22;520;50.932;6.962;2022-09-27T01:20:36;12.30;99.90
1063;DHT22;520;50.932;6.962;2022-09-27T01:31:33;12.20;99.90
1063;DHT22;520;50.932;6.962;2022-09-27T01:34:17;12.20;99.90
1063;DHT22;520;50.932;6.962;2022-09-27T01:37:01;12.20;99.90
1063;DHT22;520;50.932;6.962;2022-09-27T01:39:57;12.20;99.90
1063;DHT22;520;50.932;6.962;2022-09-27T01:42:44;12.20;99.90
1063;DHT22;520;50.932;6.962;2022-09-27T01:47:54;12.20;99.90
1063;DHT22;520;50.932;6.962;2022-09-27T01:50:45;12.20;99.90
1063;DHT22;520;50.932;6.962;2022-09-27T01:53:24;12.20;99.90
1063;DHT22;520;50.932;6.962;2022-09-27T01:55:52;12.10;99.90
1063;DHT22;520;50.932;6.962;2022-09-27T01:58:31;12.10;99.90
1063;DHT22;520;50.932;6.962;2022-09-27T02:00:59;12.20;99.90
1063;DHT22;520;50.932;6.962;2022-09-27T02:03:32;12.10;99.90
1063;DHT22;520;50.932;6.962;2022-09-27T02:06:09;12.10;99.90
1063;DHT22;520;50.932;6.962;2022-09-27T02:09:06;12.10;99.90
1063;DHT22;520;50.932;6.962;2022-09-27T02:11:31;12.20;99.90
1063;DHT22;520;50.932;6.962;2022-09-27T02:14:08;12.10;99.90
1063;DHT22;520;50.932;6.962;2022-09-27T02:19:39;12.10;99.90
1063;DHT22;520;50.932;6.962;2022-09-27T02:28:04;12.00;99.90
1063;DHT22;520;50.932;6.962;2022-09-27T02:30:32;12.00;99.90
1063;DHT22;520;50.932;6.962;2022-09-27T02:32:59;12.10;99.90
1063;DHT22;520;50.932;6.962;2022-09-27T02:35:34;12.00;99.90
1063;DHT22;520;50.932;6.962;2022-09-27T02:38:02;12.00;99.90
1063;DHT22;520;50.932;6.962;2022-09-27T02:40:32;12.00;99.90
1063;DHT22;520;50.932;6.962;2022-09-27T02:43:02;12.00;99.90
1063;DHT22;520;50.932;6.962;2022-09-27T03:02:20;11.90;99.90
1063;DHT22;520;50.932;6.962;2022-09-27T03:04:52;11.90;99.90
1063;DHT22;520;50.932;6.962;2022-09-27T03:07:21;11.90;99.90
1063;DHT22;520;50.932;6.962;2022-09-27T03:09:49;11.90;99.90
1063;DHT22;520;50.932;6.962;2022-09-27T03:12:18;11.90;99.90
1063;DHT22;520;50.932;6.962;2022-09-27T03:14:48;11.90;99.90
1063;DHT22;520;50.932;6.962;2022-09-27T03:17:15;11.90;99.90
1063;DHT22;520;50.932;6.962;2022-09-27T03:19:42;11.90;99.90
1063;DHT22;520;50.932;6.962;2022-09-27T03:22:09;11.80;99.90
1063;DHT22;520;50.932;6.962;2022-09-27T03:24:35;11.80;99.90
1063;DHT22;520;50.932;6.962;2022-09-27T03:27:02;11.90;99.90
1063;DHT22;520;50.932;6.962;2022-09-27T03:29:29;11.90;99.90
1063;DHT22;520;50.932;6.962;2022-09-27T03:31:55;11.90;99.90
1063;DHT22;520;50.932;6.962;2022-09-27T03:34:22;11.90;99.90
1063;DHT22;520;50.932;6.962;2022-09-27T03:36:49;11.80;99.90
1063;DHT22;520;50.932;6.962;2022-09-27T03:39:16;11.90;99.90
1063;DHT22;520;50.932;6.962;2022-09-27T03:41:42;11.80;99.90
1063;DHT22;520;50.932;6.962;2022-09-27T03:44:09;11.80;99.90
1063;DHT22;520;50.932;6.962;2022-09-27T03:46:36;11.80;99.90
1063;DHT22;520;50.932;6.962;2022-09-27T03:49:03;11.80;99.90
1063;DHT22;520;50.932;6.962;2022-09-27T03:51:30;11.70;99.90
1063;DHT22;520;50.932;6.962;2022-09-27T03:53:57;11.70;99.90
1063;DHT22;520;50.932;6.962;2022-09-27T03:56:24;11.60;99.90
1063;DHT22;520;50.932;6.962;2022-09-27T03:58:51;11.60;99.90
1063;DHT22;520;50.932;6.962;2022-09-27T04:01:17;11.60;99.90
1063;DHT22;520;50.932;6.962;2022-09-27T04:03:44;11.60;99.90
1063;DHT22;520;50.932;6.962;2022-09-27T04:06:11;11.70;99.90
1063;DHT22;520;50.932;6.962;2022-09-27T04:08:38;11.60;99.90
1063;DHT22;520;50.932;6.962;2022-09-27T04:11:05;11.60;99.90
1063;DHT22;520;50.932;6.962;2022-09-27T04:13:32;11.50;99.90
1063;DHT22;520;50.932;6.962;2022-09-27T04:15:59;11.40;99.90
1063;DHT22;520;50.932;6.962;2022-09-27T04:18:28;11.40;99.90
1063;DHT22;520;50.932;6.962;2022-09-27T04:20:55;11.40;99.90
1063;DHT22;520;50.932;6.962;2022-09-27T04:23:21;11.40;99.90
1063;DHT22;520;50.932;6.962;2022-09-27T04:25:54;11.40;99.90
1063;DHT22;520;50.932;6.962;2022-09-27T04:28:21;11.40;99.90
1063;DHT22;520;50.932;6.962;2022-09-27T04:30:48;11.40;99.90
1063;DHT22;520;50.932;6.962;2022-09-27T04:33:14;11.30;99.90
1063;DHT22;520;50.932;6.962;2022-09-27T04:35:42;11.30;99.90
1063;DHT22;520;50.932;6.962;2022-09-27T04:38:27;11.30;99.90
1063;DHT22;520;50.932;6.962;2022-09-27T04:40:54;11.30;99.90
1063;DHT22;520;50.932;6.962;2022-09-27T04:43:20;11.30;99.90
1063;DHT22;520;50.932;6.962;2022-09-27T04:45:47;11.30;99.90
1063;DHT22;520;50.932;6.962;2022-09-27T04:48:14;11.30;99.90
1063;DHT22;520;50.932;6.962;2022-09-27T04:50:41;11.30;99.90
1063;DHT22;520;50.932;6.962;2022-09-27T04:53:13;11.20;99.90
1063;DHT22;520;50.932;6.962;2022-09-27T04:55:45;11.30;99.90
1063;DHT22;520;50.932;6.962;2022-09-27T04:58:12;11.40;99.90
1063;DHT22;520;50.932;6.962;2022-09-27T05:00:39;11.40;99.90
1063;DHT22;520;50.932;6.962;2022-09-27T05:03:06;11.40;99.90
1063;DHT22;520;50.932;6.962;2022-09-27T05:05:33;11.40;99.90
1063;DHT22;520;50.932;6.962;2022-09-27T05:08:00;11.30;99.90
1063;DHT22;520;50.932;6.962;2022-09-27T05:10:27;11.30;99.90
1063;DHT22;520;50.932;6.962;2022-09-27T05:12:53;11.30;99.90
1063;DHT22;520;50.932;6.962;2022-09-27T05:15:20;11.30;99.90
1063;DHT22;520;50.932;6.962;2022-09-27T05:17:48;11.30;99.90
1063;DHT22;520;50.932;6.962;2022-09-27T05:20:16;11.20;99.90
1063;DHT22;520;50.932;6.962;2022-09-27T05:22:42;11.20;99.90
1063;DHT22;520;50.932;6.962;2022-09-27T05:25:09;11.20;99.90
1063;DHT22;520;50.932;6.962;2022-09-27T05:27:36;11.20;99.90
1063;DHT22;520;50.932;6.962;2022-09-27T05:30:04;11.20;99.90
1063;DHT22;520;50.932;6.962;2022-09-27T05:32:34;11.20;99.90
1063;DHT22;520;50.932;6.962;2022-09-27T05:35:01;11.20;99.90
1063;DHT22;520;50.932;6.962;2022-09-27T05:37:28;11.20;99.90
1063;DHT22;520;50.932;6.962;2022-09-27T05:39:56;11.20;99.90
1063;DHT22;520;50.932;6.962;2022-09-27T05:42:23;11.20;99.90
1063;DHT22;520;50.932;6.962;2022-09-27T05:44:50;11.30;99.90
1063;DHT22;520;50.932;6.962;2022-09-27T05:47:17;11.20;99.90
1063;DHT22;520;50.932;6.962;2022-09-27T05:49:44;11.20;99.90
1063;DHT22;520;50.932;6.962;2022-09-27T05:52:11;11.20;99.90
1063;DHT22;520;50.932;6.962;2022-09-27T05:54:40;11.20;99.90
1063;DHT22;520;50.932;6.962;2022-09-27T05:57:06;11.20;99.90
1063;DHT22;520;50.932;6.962;2022-09-27T05:59:34;11.20;99.90
1063;DHT22;520;50.932;6.962;2022-09-27T06:02:00;11.20;99.90
1063;DHT22;520;50.932;6.962;2022-09-27T06:04:27;11.20;99.90
1063;DHT22;520;50.932;6.962;2022-09-27T06:06:54;11.20;99.90
1063;DHT22;520;50.932;6.962;2022-09-27T06:09:21;11.20;99.90
1063;DHT22;520;50.932;6.962;2022-09-27T06:11:47;11.30;99.90
1063;DHT22;520;50.932;6.962;2022-09-27T06:14:14;11.40;99.90
1063;DHT22;520;50.932;6.962;2022-09-27T06:16:41;11.40;99.90
1063;DHT22;520;50.932;6.962;2022-09-27T06:19:08;11.40;99.90
1063;DHT22;520;50.932;6.962;2022-09-27T06:21:34;11.50;99.90
1063;DHT22;520;50.932;6.962;2022-09-27T06:24:01;11.50;99.90
1063;DHT22;520;50.932;6.962;2022-09-27T06:26:28;11.50;99.90
1063;DHT22;520;50.932;6.962;2022-09-27T06:28:55;11.50;99.90
1063;DHT22;520;50.932;6.962;2022-09-27T06:31:22;11.50;99.90
1063;DHT22;520;50.932;6.962;2022-09-27T06:33:49;11.50;99.90
1063;DHT22;520;50.932;6.962;2022-09-27T06:36:16;11.50;99.90
1063;DHT22;520;50.932;6.962;2022-09-27T06:38:47;11.50;99.90
1063;DHT22;520;50.932;6.962;2022-09-27T06:41:15;11.50;99.90
1063;DHT22;520;50.932;6.962;2022-09-27T06:43:41;11.60;99.90
1063;DHT22;520;50.932;6.962;2022-09-27T06:46:08;11.70;99.90
1063;DHT22;520;50.932;6.962;2022-09-27T06:48:35;11.70;99.90
1063;DHT22;520;50.932;6.962;2022-09-27T06:51:04;11.90;99.90
1063;DHT22;520;50.932;6.962;2022-09-27T06:53:31;11.90;99.90
1063;DHT22;520;50.932;6.962;2022-09-27T06:56:01;11.90;99.90
1063;DHT22;520;50.932;6.962;2022-09-27T06:58:28;12.00;99.90
1063;DHT22;520;50.932;6.962;2022-09-27T07:01:14;12.00;99.90
1063;DHT22;520;50.932;6.962;2022-09-27T07:03:43;12.00;99.90
1063;DHT22;520;50.932;6.962;2022-09-27T07:06:21;11.90;99.90
1063;DHT22;520;50.932;6.962;2022-09-27T07:08:52;11.90;99.90
1063;DHT22;520;50.932;6.962;2022-09-27T07:11:19;11.90;99.90
1063;DHT22;520;50.932;6.962;2022-09-27T07:13:47;12.00;99.90
1063;DHT22;520;50.932;6.962;2022-09-27T07:16:14;12.00;99.90
1063;DHT22;520;50.932;6.962;2022-09-27T07:18:41;12.00;99.90
1063;DHT22;520;50.932;6.962;2022-09-27T07:21:08;12.00;99.90
1063;DHT22;520;50.932;6.962;2022-09-27T07:23:35;12.00;99.90
1063;DHT22;520;50.932;6.962;2022-09-27T07:26:03;12.00;99.90
1063;DHT22;520;50.932;6.962;2022-09-27T07:28:34;11.90;99.90
1063;DHT22;520;50.932;6.962;2022-09-27T07:31:02;11.80;99.90
1063;DHT22;520;50.932;6.962;2022-09-27T07:33:30;11.80;99.90
1063;DHT22;520;50.932;6.962;2022-09-27T07:35:56;11.80;99.90
1063;DHT22;520;50.932;6.962;2022-09-27T07:38:23;11.70;99.90
1063;DHT22;520;50.932;6.962;2022-09-27T07:40:50;11.80;99.90
1063;DHT22;520;50.932;6.962;2022-09-27T07:43:17;11.80;99.90
1063;DHT22;520;50.932;6.962;2022-09-27T07:45:44;11.80;99.90
1063;DHT22;520;50.932;6.962;2022-09-27T07:48:13;11.80;99.90
1063;DHT22;520;50.932;6.962;2022-09-27T07:50:40;11.80;99.90
1063;DHT22;520;50.932;6.962;2022-09-27T07:53:07;11.80;99.90
1063;DHT22;520;50.932;6.962;2022-09-27T07:55:39;11.80;99.90
1063;DHT22;520;50.932;6.962;2022-09-27T07:58:10;11.90;99.90
1063;DHT22;520;50.932;6.962;2022-09-27T08:00:39;11.80;99.90
1063;DHT22;520;50.932;6.962;2022-09-27T08:03:09;11.80;99.90
1063;DHT22;520;50.932;6.962;2022-09-27T08:05:36;11.80;99.90
1063;DHT22;520;50.932;6.962;2022-09-27T08:08:04;11.80;99.90
1063;DHT22;520;50.932;6.962;2022-09-27T08:10:32;11.90;99.90
1063;DHT22;520;50.932;6.962;2022-09-27T08:13:03;11.90;99.90
1063;DHT22;520;50.932;6.962;2022-09-27T08:15:31;12.00;99.90
1063;DHT22;520;50.932;6.962;2022-09-27T08:17:58;12.00;99.90
1063;DHT22;520;50.932;6.962;2022-09-27T08:20:25;12.00;99.90
1063;DHT22;520;50.932;6.962;2022-09-27T08:22:52;12.00;99.90
1063;DHT22;520;50.932;6.962;2022-09-27T08:25:19;12.00;99.90
1063;DHT22;520;50.932;6.962;2022-09-27T08:28:02;12.10;99.90
1063;DHT22;520;50.932;6.962;2022-09-27T08:30:32;12.10;99.90
1063;DHT22;520;50.932;6.962;2022-09-27T08:33:00;12.20;99.90
1063;DHT22;520;50.932;6.962;2022-09-27T08:35:29;12.20;99.90
1063;DHT22;520;50.932;6.962;2022-09-27T08:37:58;12.30;99.90
1063;DHT22;520;50.932;6.962;2022-09-27T08:46:40;12.70;99.90
1063;DHT22;520;50.932;6.962;2022-09-27T08:49:16;12.80;99.90
1063;DHT22;520;50.932;6.962;2022-09-27T08:51:47;12.90;99.90
1063;DHT22;520;50.932;6.962;2022-09-27T08:54:29;13.10;99.90
1063;DHT22;520;50.932;6.962;2022-09-27T08:57:08;13.00;99.90
1063;DHT22;520;50.932;6.962;2022-09-27T08:59:42;12.90;99.90
1063;DHT22;520;50.932;6.962;2022-09-27T09:02:19;13.00;99.90
1063;DHT22;520;50.932;6.962;2022-09-27T09:04:51;13.40;99.90
1063;DHT22;520;50.932;6.962;2022-09-27T09:13:25;13.80;98.80
1063;DHT22;520;50.932;6.962;2022-09-27T09:16:23;14.10;97.80
1063;DHT22;520;50.932;6.962;2022-09-27T09:22:16;14.20;97.00
1063;DHT22;520;50.932;6.962;2022-09-27T09:27:39;14.20;96.70
1063;DHT22;520;50.932;6.962;2022-09-27T09:30:34;14.00;96.70
1063;DHT22;520;50.932;6.962;2022-09-27T09:35:40;13.70;96.90
1063;DHT22;520;50.932;6.962;2022-09-27T09:38:38;13.70;97.30
1063;DHT22;520;50.932;6.962;2022-09-27T09:41:21;13.70;97.40
1063;DHT22;520;50.932;6.962;2022-09-27T09:46:45;13.70;96.80
1063;DHT22;520;50.932;6.962;2022-09-27T09:49:23;13.70;97.00
1063;DHT22;520;50.932;6.962;2022-09-27T09:51:56;13.70;97.00
1063;DHT22;520;50.932;6.962;2022-09-27T09:54:37;13.70;96.70
1063;DHT22;520;50.932;6.962;2022-09-27T09:57:15;13.60;96.90
1063;DHT22;520;50.932;6.962;2022-09-27T09:59:54;13.60;97.20
1063;DHT22;520;50.932;6.962;2022-09-27T10:02:36;13.70;97.30
1063;DHT22;520;50.932;6.962;2022-09-27T10:05:05;13.80;97.50
1063;DHT22;520;50.932;6.962;2022-09-27T10:07:35;13.80;97.40
1063;DHT22;520;50.932;6.962;2022-09-27T10:10:04;13.70;96.90
1063;DHT22;520;50.932;6.962;2022-09-27T10:12:32;13.70;97.20
1063;DHT22;520;50.932;6.962;2022-09-27T10:15:03;13.80;97.20
1063;DHT22;520;50.932;6.962;2022-09-27T10:17:40;13.90;96.60
1063;DHT22;520;50.932;6.962;2022-09-27T10:23:03;14.10;96.00
1063;DHT22;520;50.932;6.962;2022-09-27T10:25:54;14.10;96.00
1063;DHT22;520;50.932;6.962;2022-09-27T10:28:36;14.00;95.80
1063;DHT22;520;50.932;6.962;2022-09-27T10:31:06;14.00;96.00
1063;DHT22;520;50.932;6.962;2022-09-27T10:33:37;13.90;96.30
1063;DHT22;520;50.932;6.962;2022-09-27T10:36:30;13.80;96.60
1063;DHT22;520;50.932;6.962;2022-09-27T10:39:00;13.70;96.90
1063;DHT22;520;50.932;6.962;2022-09-27T10:41:31;13.70;97.00
1063;DHT22;520;50.932;6.962;2022-09-27T10:46:49;13.70;97.10
1063;DHT22;520;50.932;6.962;2022-09-27T10:49:33;13.60;97.20
1063;DHT22;520;50.932;6.962;2022-09-27T10:52:21;13.90;97.00
1063;DHT22;520;50.932;6.962;2022-09-27T10:54:56;14.20;96.30
1063;DHT22;520;50.932;6.962;2022-09-27T10:57:26;14.70;95.50
1063;DHT22;520;50.932;6.962;2022-09-27T10:59:58;14.60;94.40
1063;DHT22;520;50.932;6.962;2022-09-27T11:02:35;14.40;94.60
1063;DHT22;520;50.932;6.962;2022-09-27T11:05:11;14.40;94.80
1063;DHT22;520;50.932;6.962;2022-09-27T11:07:52;14.20;94.80
1063;DHT22;520;50.932;6.962;2022-09-27T11:10:23;14.20;94.80
1063;DHT22;520;50.932;6.962;2022-09-27T11:13:07;14.20;94.90
1063;DHT22;520;50.932;6.962;2022-09-27T11:27:29;13.90;95.40
1063;DHT22;520;50.932;6.962;2022-09-27T11:30:09;14.10;95.70
1063;DHT22;520;50.932;6.962;2022-09-27T11:36:02;14.30;95.20
1063;DHT22;520;50.932;6.962;2022-09-27T11:41:39;14.40;95.10
1063;DHT22;520;50.932;6.962;2022-09-27T11:57:56;14.30;95.10
1063;DHT22;520;50.932;6.962;2022-09-27T12:09:22;14.60;94.10
1063;DHT22;520;50.932;6.962;2022-09-27T12:12:04;14.70;94.10
1063;DHT22;520;50.932;6.962;2022-09-27T12:17:22;15.10;93.40
1063;DHT22;520;50.932;6.962;2022-09-27T12:19:57;14.90;93.70
1063;DHT22;520;50.932;6.962;2022-09-27T12:22:29;14.80;93.60
1063;DHT22;520;50.932;6.962;2022-09-27T12:25:18;14.80;93.80
1063;DHT22;520;50.932;6.962;2022-09-27T12:27:55;14.70;93.60
1063;DHT22;520;50.932;6.962;2022-09-27T12:30:23;14.60;95.30
1063;DHT22;520;50.932;6.962;2022-09-27T12:33:06;14.10;97.40
1063;DHT22;520;50.932;6.962;2022-09-27T12:35:39;13.90;98.50
1063;DHT22;520;50.932;6.962;2022-09-27T12:38:13;13.80;99.60
1063;DHT22;520;50.932;6.962;2022-09-27T12:40:52;13.70;99.90
1063;DHT22;520;50.932;6.962;2022-09-27T12:43:26;13.70;99.90
1063;DHT22;520;50.932;6.962;2022-09-27T12:46:31;13.90;99.90
1063;DHT22;520;50.932;6.962;2022-09-27T12:49:13;14.10;99.90
1063;DHT22;520;50.932;6.962;2022-09-27T12:51:52;14.10;99.90
1063;DHT22;520;50.932;6.962;2022-09-27T12:57:06;14.00;99.50
1063;DHT22;520;50.932;6.962;2022-09-27T13:11:39;13.50;99.70
1063;DHT22;520;50.932;6.962;2022-09-27T13:14:23;13.30;99.90
1063;DHT22;520;50.932;6.962;2022-09-27T13:16:51;13.20;99.90
1063;DHT22;520;50.932;6.962;2022-09-27T13:19:38;13.10;99.90
1063;DHT22;520;50.932;6.962;2022-09-27T13:22:53;13.00;99.90
1063;DHT22;520;50.932;6.962;2022-09-27T13:24:54;12.90;99.90
1063;DHT22;520;50.932;6.962;2022-09-27T13:35:34;13.10;99.90
1063;DHT22;520;50.932;6.962;2022-09-27T13:38:02;13.00;99.90
1063;DHT22;520;50.932;6.962;2022-09-27T13:40:40;12.90;99.90
1063;DHT22;520;50.932;6.962;2022-09-27T13:45:54;12.80;99.90
1063;DHT22;520;50.932;6.962;2022-09-27T13:48:38;12.80;99.90
1063;DHT22;520;50.932;6.962;2022-09-27T13:51:45;12.80;99.90
1063;DHT22;520;50.932;6.962;2022-09-27T13:57:00;12.90;99.90
1063;DHT22;520;50.932;6.962;2022-09-27T13:59:40;13.00;99.90
1063;DHT22;520;50.932;6.962;2022-09-27T14:02:30;13.00;99.90
1063;DHT22;520;50.932;6.962;2022-09-27T14:05:00;13.10;99.90
1063;DHT22;520;50.932;6.962;2022-09-27T14:07:38;13.20;99.90
1063;DHT22;520;50.932;6.962;2022-09-27T14:10:15;13.20;99.90
1063;DHT22;520;50.932;6.962;2022-09-27T14:12:44;13.20;99.90
1063;DHT22;520;50.932;6.962;2022-09-27T14:15:19;13.20;99.90
1063;DHT22;520;50.932;6.962;2022-09-27T14:17:46;13.30;99.90
1063;DHT22;520;50.932;6.962;2022-09-27T14:20:33;13.30;99.90
1063;DHT22;520;50.932;6.962;2022-09-27T14:23:01;13.30;99.90
1063;DHT22;520;50.932;6.962;2022-09-27T14:25:29;13.30;99.90
1063;DHT22;520;50.932;6.962;2022-09-27T14:27:55;13.30;99.90
1063;DHT22;520;50.932;6.962;2022-09-27T14:30:25;13.20;99.90
1063;DHT22;520;50.932;6.962;2022-09-27T14:32:55;13.20;99.90
1063;DHT22;520;50.932;6.962;2022-09-27T14:35:25;13.20;99.90
1063;DHT22;520;50.932;6.962;2022-09-27T14:38:15;13.30;99.90
1063;DHT22;520;50.932;6.962;2022-09-27T14:41:04;13.20;99.90
1063;DHT22;520;50.932;6.962;2022-09-27T14:43:34;13.20;99.90
1063;DHT22;520;50.932;6.962;2022-09-27T14:46:04;13.20;99.90
1063;DHT22;520;50.932;6.962;2022-09-27T14:48:38;13.20;99.90
1063;DHT22;520;50.932;6.962;2022-09-27T14:53:46;13.30;99.90
1063;DHT22;520;50.932;6.962;2022-09-27T14:56:18;13.30;99.90
1063;DHT22;520;50.932;6.962;2022-09-27T14:58:53;13.30;99.90
1063;DHT22;520;50.932;6.962;2022-09-27T15:01:28;13.30;99.90
1063;DHT22;520;50.932;6.962;2022-09-27T15:04:01;13.30;99.90
1063;DHT22;520;50.932;6.962;2022-09-27T15:06:29;13.30;99.90
1063;DHT22;520;50.932;6.962;2022-09-27T15:08:57;13.30;99.90
1063;DHT22;520;50.932;6.962;2022-09-27T15:11:24;13.30;99.90
1063;DHT22;520;50.932;6.962;2022-09-27T15:13:51;13.20;99.90
1063;DHT22;520;50.932;6.962;2022-09-27T15:16:21;13.30;99.90
1063;DHT22;520;50.932;6.962;2022-09-27T15:19:01;13.20;99.90
1063;DHT22;520;50.932;6.962;2022-09-27T15:21:35;13.20;99.90
1063;DHT22;520;50.932;6.962;2022-09-27T15:24:03;13.20;99.90
1063;DHT22;520;50.932;6.962;2022-09-27T15:26:38;13.10;99.90
1063;DHT22;520;50.932;6.962;2022-09-27T15:29:20;13.10;99.90
1063;DHT22;520;50.932;6.962;2022-09-27T15:31:58;13.10;99.90
1063;DHT22;520;50.932;6.962;2022-09-27T15:34:25;13.10;99.90
1063;DHT22;520;50.932;6.962;2022-09-27T15:36:55;12.90;98.60
1063;DHT22;520;50.932;6.962;2022-09-27T15:39:32;12.90;97.40
1063;DHT22;520;50.932;6.962;2022-09-27T15:44:42;12.80;97.80
1063;DHT22;520;50.932;6.962;2022-09-27T15:52:48;12.80;98.00
1063;DHT22;520;50.932;6.962;2022-09-27T15:55:21;12.80;97.80
1063;DHT22;520;50.932;6.962;2022-09-27T16:00:25;12.80;97.90
1063;DHT22;520;50.932;6.962;2022-09-27T16:02:52;12.80;98.10
1063;DHT22;520;50.932;6.962;2022-09-27T16:05:20;12.80;97.50
1063;DHT22;520;50.932;6.962;2022-09-27T16:07:49;12.80;97.70
1063;DHT22;520;50.932;6.962;2022-09-27T16:10:26;12.80;97.70
1063;DHT22;520;50.932;6.962;2022-09-27T16:12:55;12.80;97.70
1063;DHT22;520;50.932;6.962;2022-09-27T16:15:21;12.70;97.60
1063;DHT22;520;50.932;6.962;2022-09-27T16:17:48;12.70;97.80
1063;DHT22;520;50.932;6.962;2022-09-27T16:20:22;12.70;97.40
1063;DHT22;520;50.932;6.962;2022-09-27T16:22:51;12.60;97.00
1063;DHT22;520;50.932;6.962;2022-09-27T16:25:18;12.60;97.30
1063;DHT22;520;50.932;6.962;2022-09-27T16:27:45;12.60;97.60
1063;DHT22;520;50.932;6.962;2022-09-27T16:30:12;12.60;97.90
1063;DHT22;520;50.932;6.962;2022-09-27T16:32:44;12.70;97.90
1063;DHT22;520;50.932;6.962;2022-09-27T16:35:12;12.70;97.80
1063;DHT22;520;50.932;6.962;2022-09-27T16:37:39;12.70;97.80
1063;DHT22;520;50.932;6.962;2022-09-27T16:40:07;12.70;97.90
1063;DHT22;520;50.932;6.962;2022-09-27T16:42:34;12.70;98.10
1063;DHT22;520;50.932;6.962;2022-09-27T16:45:02;12.70;98.00
1063;DHT22;520;50.932;6.962;2022-09-27T16:47:36;12.70;98.00
1063;DHT22;520;50.932;6.962;2022-09-27T16:50:03;12.60;97.90
1063;DHT22;520;50.932;6.962;2022-09-27T16:52:49;12.60;98.10
1063;DHT22;520;50.932;6.962;2022-09-27T16:55:17;12.80;98.10
1063;DHT22;520;50.932;6.962;2022-09-27T16:57:47;13.10;97.10
1063;DHT22;520;50.932;6.962;2022-09-27T17:00:14;13.10;96.90
1063;DHT22;520;50.932;6.962;2022-09-27T17:02:41;13.00;97.20
1063;DHT22;520;50.932;6.962;2022-09-27T17:05:13;13.10;97.10
1063;DHT22;520;50.932;6.962;2022-09-27T17:07:40;12.90;97.30
1063;DHT22;520;50.932;6.962;2022-09-27T17:10:07;12.80;97.30
1063;DHT22;520;50.932;6.962;2022-09-27T17:12:34;12.70;97.60
1063;DHT22;520;50.932;6.962;2022-09-27T17:15:01;12.80;97.90
1063;DHT22;520;50.932;6.962;2022-09-27T17:17:28;12.70;97.90
1063;DHT22;520;50.932;6.962;2022-09-27T17:19:57;12.60;98.00
1063;DHT22;520;50.932;6.962;2022-09-27T17:22:24;12.50;98.30
1063;DHT22;520;50.932;6.962;2022-09-27T17:24:50;12.60;98.30
1063;DHT22;520;50.932;6.962;2022-09-27T17:27:17;12.70;98.40
1063;DHT22;520;50.932;6.962;2022-09-27T17:29:47;12.70;98.50
1063;DHT22;520;50.932;6.962;2022-09-27T17:32:15;12.70;98.40
1063;DHT22;520;50.932;6.962;2022-09-27T17:34:41;12.60;98.70
1063;DHT22;520;50.932;6.962;2022-09-27T17:37:09;12.60;98.70
1063;DHT22;520;50.932;6.962;2022-09-27T17:39:36;12.60;99.00
1063;DHT22;520;50.932;6.962;2022-09-27T17:42:03;12.60;98.90
1063;DHT22;520;50.932;6.962;2022-09-27T17:44:30;12.60;99.10
1063;DHT22;520;50.932;6.962;2022-09-27T17:46:56;12.50;99.20
1063;DHT22;520;50.932;6.962;2022-09-27T17:49:41;12.30;99.40
1063;DHT22;520;50.932;6.962;2022-09-27T17:52:27;12.20;99.90
1063;DHT22;520;50.932;6.962;2022-09-27T17:54:56;12.10;99.90
1063;DHT22;520;50.932;6.962;2022-09-27T17:57:24;12.20;99.90
1063;DHT22;520;50.932;6.962;2022-09-27T17:59:51;12.40;99.80
1063;DHT22;520;50.932;6.962;2022-09-27T18:02:19;12.40;99.70
1063;DHT22;520;50.932;6.962;2022-09-27T18:04:46;12.40;99.50
1063;DHT22;520;50.932;6.962;2022-09-27T18:07:12;12.40;99.60
1063;DHT22;520;50.932;6.962;2022-09-27T18:09:39;12.50;99.90
1063;DHT22;520;50.932;6.962;2022-09-27T18:12:06;12.40;99.90
1063;DHT22;520;50.932;6.962;2022-09-27T18:14:33;12.30;99.90
1063;DHT22;520;50.932;6.962;2022-09-27T18:17:00;12.30;99.90
1063;DHT22;520;50.932;6.962;2022-09-27T18:19:26;12.40;99.90
1063;DHT22;520;50.932;6.962;2022-09-27T18:21:53;12.40;99.90
1063;DHT22;520;50.932;6.962;2022-09-27T18:24:20;12.50;99.90
1063;DHT22;520;50.932;6.962;2022-09-27T18:26:46;12.70;99.90
1063;DHT22;520;50.932;6.962;2022-09-27T18:29:16;12.60;99.90
1063;DHT22;520;50.932;6.962;2022-09-27T18:31:43;12.50;99.90
1063;DHT22;520;50.932;6.962;2022-09-27T18:34:15;12.40;99.90
1063;DHT22;520;50.932;6.962;2022-09-27T18:36:42;12.50;99.90
1063;DHT22;520;50.932;6.962;2022-09-27T18:39:14;12.40;99.90
1063;DHT22;520;50.932;6.962;2022-09-27T18:41:44;12.40;99.90
1063;DHT22;520;50.932;6.962;2022-09-27T18:44:14;12.30;99.90
1063;DHT22;520;50.932;6.962;2022-09-27T18:46:41;12.30;99.90
1063;DHT22;520;50.932;6.962;2022-09-27T18:49:10;12.00;99.90
1063;DHT22;520;50.932;6.962;2022-09-27T18:51:37;12.10;99.90
1063;DHT22;520;50.932;6.962;2022-09-27T18:54:15;12.10;99.90
1063;DHT22;520;50.932;6.962;2022-09-27T18:56:43;12.10;99.90
1063;DHT22;520;50.932;6.962;2022-09-27T18:59:10;12.00;99.90
1063;DHT22;520;50.932;6.962;2022-09-27T19:01:39;12.00;99.90
1063;DHT22;520;50.932;6.962;2022-09-27T19:04:10;11.90;99.90
1063;DHT22;520;50.932;6.962;2022-09-27T19:06:38;12.00;99.90
1063;DHT22;520;50.932;6.962;2022-09-27T19:09:06;11.80;99.90
1063;DHT22;520;50.932;6.962;2022-09-27T19:11:33;11.90;99.90
1063;DHT22;520;50.932;6.962;2022-09-27T19:14:00;12.00;99.90
1063;DHT22;520;50.932;6.962;2022-09-27T19:16:28;12.00;99.90
1063;DHT22;520;50.932;6.962;2022-09-27T19:18:55;12.10;99.90
1063;DHT22;520;50.932;6.962;2022-09-27T19:21:25;12.00;99.90
1063;DHT22;520;50.932;6.962;2022-09-27T19:23:54;11.80;99.90
1063;DHT22;520;50.932;6.962;2022-09-27T19:26:24;12.00;99.90